Current | Forecast
Updated: 9:00 PM CET on February 22, 2018
Observed at Kosice, Slovakia
Temperature -1°C
Windchill -9°C
Humidity 69%
Dew Point -6°C
Wind North at 39 km/h
Pressure 1018 hPa (Steady)
Conditions Overcast
Visibility 10.0 kilometers
UV 0 out of 16
Clouds (FEW) : 609 m
Overcast (OVC) : 2590 m
Yesterday's Maximum 2°C
Yesterday's Minimum -2°C approx.
Yesterday's Heating Degree Days 33 approx.
Sunrise6:26 AM CET
Sunset5:02 PM CET
Moon Rise9:41 AM CET
Moon Set
Moon PhaseMoon Phase
Waxing Crescent
Raw METARMETAR LZKZ 222000Z 36021KT 9999 FEW020 OVC085 M01/M06 Q1018


Monday
. High: 66° F.
Tuesday
. High: 60° F.
Wednesday
. High: 71° F.
Thursday
. High: 80° F.
Friday
. High: 69° F.
Saturday
. High: 66° F.
Sunday
. High: 73° F.
Monday
. High: 66° F.

Units: English | Metric

Find the Weather for any City, State or Zipcode, or Country:

U.S. State List | Severe Weather | Tropical Storms | Ski Conditions
United States | Canada | Central America | South America | Asia | Europe | Australia | Africa | Islands

Weather Underground

© Copyright 2018
The Weather Company, LLC